Time;durP1;ratioP1;P1;durP2;ratioP2;P2;SDS_P1;SDS_P2;PMS_P1;PMS_P2;Temp;Humidity;BMP_temperature;BMP_pressure;BME280_temperature;BME280_humidity;BME280_pressure;Samples;Min_cycle;Max_cycle;Signal;HPM_P1;HPM_P2
2024/04/07 00:01:36;;;;;;;2.15;1.75;;;;;;;18.75;82.71;99923.25;5098094;28;20024;-64
2024/04/07 00:04:06;;;;;;;3.15;1.45;;;;;;;18.89;82.06;99920.50;5098665;28;20036;-63
2024/04/07 00:06:32;;;;;;;2.20;1.50;;;;;;;18.96;83.57;99919.44;5098518;28;20066;-65
2024/04/07 00:08:58;;;;;;;2.65;1.60;;;;;;;18.98;83.41;99925.44;5097577;28;20035;-64
2024/04/07 00:11:24;;;;;;;2.22;1.73;;;;;;;18.80;82.50;99925.28;5098219;28;20047;-64
2024/04/07 00:13:51;;;;;;;3.95;1.67;;;;;;;18.85;81.54;99928.16;5098164;28;20214;-64
2024/04/07 00:16:17;;;;;;;3.55;1.73;;;;;;;18.76;83.60;99932.94;5097658;28;20032;-64
2024/04/07 00:18:43;;;;;;;3.63;1.33;;;;;;;18.13;87.64;99953.16;5096861;28;20047;-65
2024/04/07 00:21:09;;;;;;;2.33;1.67;;;;;;;17.45;91.84;99947.03;5097624;28;20051;-64
2024/04/07 00:23:34;;;;;;;2.30;1.83;;;;;;;17.33;94.17;99943.28;5098495;28;20048;-64
2024/04/07 00:26:00;;;;;;;9.52;4.68;;;;;;;17.08;96.07;99959.03;5096335;28;20046;-64
2024/04/07 00:28:26;;;;;;;9.73;5.30;;;;;;;16.57;100.00;99946.75;5098912;28;20300;-65
2024/04/07 00:30:52;;;;;;;8.48;5.53;;;;;;;16.11;100.00;99949.09;5096416;28;20032;-64
2024/04/07 00:33:17;;;;;;;13.57;5.53;;;;;;;16.13;100.00;99944.38;5098223;28;20074;-64
2024/04/07 00:36:02;;;;;;;8.43;4.18;;;;;;;16.03;100.00;99959.09;5098044;28;20024;-63
2024/04/07 00:38:28;;;;;;;7.20;3.47;;;;;;;15.95;100.00;99955.53;5098545;28;20035;-64
2024/04/07 00:40:56;;;;;;;7.28;3.47;;;;;;;15.80;100.00;99948.59;5097230;28;20044;-64
2024/04/07 00:43:23;;;;;;;5.05;2.40;;;;;;;15.84;100.00;99942.69;5097934;28;20058;-64
2024/04/07 00:45:49;;;;;;;4.68;2.30;;;;;;;15.81;100.00;99950.25;5096871;28;20034;-64
2024/04/07 00:48:17;;;;;;;2.38;1.73;;;;;;;15.89;100.00;99947.47;5097934;28;20095;-63
2024/04/07 00:50:47;;;;;;;2.83;1.25;;;;;;;15.74;100.00;99952.03;5096783;28;20301;-64
2024/04/07 00:53:14;;;;;;;2.30;1.33;;;;;;;15.83;100.00;99954.38;5098111;28;20032;-63
2024/04/07 00:55:43;;;;;;;1.77;1.65;;;;;;;15.61;100.00;99960.72;5097123;28;20057;-64
2024/04/07 00:58:13;;;;;;;2.83;1.73;;;;;;;15.52;100.00;99951.97;5097159;28;20043;-64
2024/04/07 01:00:42;;;;;;;1.70;1.60;;;;;;;15.60;100.00;99953.72;5095382;28;20032;-64
2024/04/07 01:03:08;;;;;;;2.05;1.60;;;;;;;15.53;100.00;99964.28;5097358;28;20053;-64
2024/04/07 01:05:44;;;;;;;2.47;1.48;;;;;;;15.44;100.00;99956.59;5097397;28;20028;-63
2024/04/07 01:08:11;;;;;;;2.88;2.10;;;;;;;15.33;100.00;99957.91;5097259;28;20080;-64
2024/04/07 01:10:38;;;;;;;2.17;1.88;;;;;;;15.39;100.00;99961.66;5096023;28;20081;-64
2024/04/07 01:13:04;;;;;;;3.53;1.88;;;;;;;15.35;100.00;99963.88;5095494;28;20047;-64
2024/04/07 01:15:30;;;;;;;3.15;2.28;;;;;;;15.33;100.00;99971.25;5098148;28;20245;-63
2024/04/07 01:17:57;;;;;;;2.17;1.90;;;;;;;15.29;100.00;99984.13;5095445;28;20039;-64
2024/04/07 01:20:22;;;;;;;3.35;2.47;;;;;;;15.35;100.00;99985.22;5098240;28;20028;-64
2024/04/07 01:22:50;;;;;;;2.55;2.35;;;;;;;15.46;100.00;99986.56;5095468;28;20077;-63
2024/04/07 01:25:19;;;;;;;3.72;2.33;;;;;;;15.24;100.00;100001.69;5097600;28;20099;-64
2024/04/07 01:27:55;;;;;;;3.72;1.92;;;;;;;15.10;100.00;99997.22;5095425;28;20103;-63
2024/04/07 01:30:21;;;;;;;3.85;1.83;;;;;;;15.00;100.00;100016.16;5096918;28;20222;-63
2024/04/07 01:32:47;;;;;;;5.78;3.53;;;;;;;14.92;100.00;100013.59;5095450;28;20098;-64
2024/04/07 01:35:13;;;;;;;3.55;1.90;;;;;;;14.85;100.00;100010.00;5096969;28;20341;-63
2024/04/07 01:37:38;;;;;;;2.47;2.00;;;;;;;14.94;100.00;100004.38;5095141;28;20042;-63
2024/04/07 01:40:04;;;;;;;2.42;1.80;;;;;;;14.83;100.00;100007.50;5096945;28;20044;-64
2024/04/07 01:42:30;;;;;;;3.05;1.80;;;;;;;14.89;100.00;100000.63;5094649;28;20284;-63
2024/04/07 01:44:56;;;;;;;2.78;1.88;;;;;;;14.86;100.00;99996.47;5096651;28;20374;-63
2024/04/07 01:47:21;;;;;;;2.38;1.90;;;;;;;14.75;100.00;100001.44;5095544;28;20036;-64
2024/04/07 01:49:50;;;;;;;3.72;2.42;;;;;;;14.79;100.00;100019.53;5096625;28;20234;-63
2024/04/07 01:52:16;;;;;;;2.10;1.90;;;;;;;14.91;100.00;100015.41;5094953;28;20028;-64
2024/04/07 01:54:42;;;;;;;3.10;2.30;;;;;;;14.87;100.00;100016.78;5096159;28;20032;-63
2024/04/07 01:57:07;;;;;;;2.38;1.88;;;;;;;14.74;100.00;100015.78;5096183;28;20046;-63
2024/04/07 01:59:33;;;;;;;2.95;1.90;;;;;;;14.89;100.00;100035.28;5094222;28;20094;-64
2024/04/07 02:01:58;;;;;;;2.78;1.83;;;;;;;14.72;100.00;100029.28;5095252;28;20035;-63
2024/04/07 02:04:26;;;;;;;2.40;1.98;;;;;;;14.73;100.00;100027.44;5094213;28;20058;-64
2024/04/07 02:06:52;;;;;;;2.33;1.88;;;;;;;14.79;100.00;100048.88;5096532;28;20124;-64
2024/04/07 02:09:17;;;;;;;3.53;2.35;;;;;;;14.78;100.00;100044.53;5094826;28;20028;-64
2024/04/07 02:11:43;;;;;;;2.75;2.38;;;;;;;14.67;100.00;100021.84;5096495;28;20318;-64
2024/04/07 02:14:08;;;;;;;2.47;2.00;;;;;;;14.57;100.00;100037.25;5094734;28;20039;-64
2024/04/07 02:16:35;;;;;;;4.03;2.50;;;;;;;14.50;100.00;100033.63;5096305;28;20322;-65
2024/04/07 02:19:00;;;;;;;3.78;2.30;;;;;;;14.56;100.00;100026.75;5094695;28;20118;-64
2024/04/07 02:21:26;;;;;;;4.68;2.78;;;;;;;14.55;100.00;100027.75;5096515;28;20040;-64
2024/04/07 02:23:52;;;;;;;4.55;3.30;;;;;;;14.54;100.00;100028.75;5094060;28;20392;-64
2024/04/07 02:26:17;;;;;;;3.17;2.45;;;;;;;14.45;100.00;100024.50;5095715;28;20207;-64
2024/04/07 02:28:43;;;;;;;3.88;2.92;;;;;;;14.49;100.00;100031.97;5095458;28;20107;-64
2024/04/07 02:31:08;;;;;;;5.75;2.50;;;;;;;14.37;100.00;100026.22;5094316;28;20036;-65
2024/04/07 02:33:34;;;;;;;3.90;3.08;;;;;;;14.52;100.00;100036.09;5094784;28;20078;-64
2024/04/07 02:35:59;;;;;;;5.88;2.90;;;;;;;14.62;100.00;100052.69;5095991;28;20040;-64
2024/04/07 02:38:25;;;;;;;4.43;2.83;;;;;;;14.61;100.00;100062.53;5093023;28;20277;-64
2024/04/07 02:40:50;;;;;;;3.67;2.65;;;;;;;14.60;100.00;100066.22;5098419;28;20046;-64
2024/04/07 02:43:16;;;;;;;3.60;3.00;;;;;;;14.61;100.00;100075.84;5098336;28;20039;-64
2024/04/07 02:48:26;;;;;;;4.85;3.15;;;;;;;14.75;100.00;100068.06;5098314;28;20123;-64
2024/04/07 02:50:53;;;;;;;5.25;2.70;;;;;;;14.73;100.00;100065.59;5100263;28;20040;-64
2024/04/07 02:53:18;;;;;;;3.38;3.03;;;;;;;14.83;100.00;100068.81;5098820;28;20043;-65
2024/04/07 02:55:44;;;;;;;4.60;3.20;;;;;;;14.96;100.00;100063.69;5100145;28;20036;-64
2024/04/07 02:58:09;;;;;;;4.55;3.42;;;;;;;15.17;100.00;100056.81;5098476;28;20250;-65
2024/04/07 03:00:35;;;;;;;7.50;4.28;;;;;;;15.47;100.00;100060.28;5100135;28;20028;-65
2024/04/07 03:03:00;;;;;;;6.20;4.45;;;;;;;15.65;100.00;100060.78;5098639;28;20092;-65
2024/04/07 03:05:26;;;;;;;4.80;4.20;;;;;;;15.52;100.00;100060.56;5098342;28;20039;-65
2024/04/07 03:07:51;;;;;;;5.07;3.78;;;;;;;15.65;100.00;100066.13;5098149;28;20043;-65
2024/04/07 03:10:18;;;;;;;4.40;3.70;;;;;;;15.61;100.00;100062.16;5099193;28;20216;-65
2024/04/07 03:12:44;;;;;;;7.28;3.80;;;;;;;15.35;100.00;100065.25;5098881;28;20042;-64
2024/04/07 03:15:10;;;;;;;4.63;3.53;;;;;;;15.21;100.00;100061.59;5099604;28;20048;-64
2024/04/07 03:17:35;;;;;;;3.85;3.47;;;;;;;15.31;100.00;100067.47;5098440;28;20032;-65
2024/04/07 03:20:03;;;;;;;4.05;3.63;;;;;;;15.20;100.00;100067.09;5099610;28;20338;-64
2024/04/07 03:22:28;;;;;;;5.45;4.13;;;;;;;15.16;100.00;100058.63;5100380;28;20062;-64
2024/04/07 03:24:54;;;;;;;5.22;3.72;;;;;;;15.11;100.00;100070.88;5099997;28;20052;-64
2024/04/07 03:27:19;;;;;;;5.57;4.30;;;;;;;15.11;100.00;100065.53;5099871;28;20039;-64
2024/04/07 03:29:44;;;;;;;5.53;4.55;;;;;;;15.19;100.00;100070.78;5097842;28;20199;-65
2024/04/07 03:32:10;;;;;;;5.72;4.05;;;;;;;14.96;100.00;100065.53;5099702;28;20040;-64
2024/04/07 03:34:35;;;;;;;6.20;4.55;;;;;;;15.17;100.00;100070.13;5098789;28;20048;-64
2024/04/07 03:37:01;;;;;;;4.40;3.90;;;;;;;15.33;100.00;100073.44;5099450;28;20039;-64
2024/04/07 03:39:27;;;;;;;5.30;4.03;;;;;;;15.46;100.00;100067.47;5098067;28;20044;-64
2024/04/07 03:41:53;;;;;;;5.40;4.43;;;;;;;15.48;100.00;100067.28;5099131;28;20046;-65
2024/04/07 03:44:18;;;;;;;6.57;4.68;;;;;;;15.43;100.00;100075.84;5099137;28;20206;-64
2024/04/07 03:46:47;;;;;;;5.25;4.63;;;;;;;15.41;100.00;100059.19;5098456;28;20051;-64
2024/04/07 03:49:12;;;;;;;6.82;5.30;;;;;;;15.64;100.00;100059.13;5098557;28;20339;-64
2024/04/07 03:51:37;;;;;;;5.80;4.78;;;;;;;15.84;100.00;100054.84;5097838;28;20149;-65
2024/04/07 03:54:03;;;;;;;4.80;4.10;;;;;;;16.02;100.00;100053.59;5098973;28;20035;-64
2024/04/07 03:56:28;;;;;;;4.72;3.85;;;;;;;16.14;100.00;100057.41;5098262;28;20051;-65
2024/04/07 03:58:56;;;;;;;5.05;4.47;;;;;;;16.27;100.00;100060.22;5099675;28;20086;-64
2024/04/07 04:01:21;;;;;;;5.03;4.53;;;;;;;16.37;100.00;100057.22;5096283;28;20031;-64
2024/04/07 04:03:47;;;;;;;6.03;4.57;;;;;;;16.30;100.00;100062.50;5098627;28;20222;-64
2024/04/07 04:06:13;;;;;;;5.40;4.18;;;;;;;16.47;100.00;100055.03;5096547;28;20036;-64
2024/04/07 04:08:38;;;;;;;6.35;3.67;;;;;;;16.53;100.00;100051.59;5098798;28;20066;-64
2024/04/07 04:11:05;;;;;;;5.95;4.07;;;;;;;16.66;100.00;100056.28;5098142;28;20032;-64
2024/04/07 04:13:35;;;;;;;4.40;4.00;;;;;;;16.75;100.00;100061.28;5098127;28;20052;-64
2024/04/07 04:16:01;;;;;;;6.40;4.72;;;;;;;16.90;100.00;100066.53;5097359;28;20039;-65
2024/04/07 04:18:27;;;;;;;4.25;3.85;;;;;;;16.89;100.00;100060.38;5098433;28;20043;-64
2024/04/07 04:20:53;;;;;;;5.55;4.00;;;;;;;16.97;100.00;100061.25;5097972;28;20226;-64
2024/04/07 04:23:18;;;;;;;6.53;4.90;;;;;;;16.92;100.00;100067.19;5094865;28;20306;-64
2024/04/07 04:25:56;;;;;;;8.93;5.00;;;;;;;16.82;100.00;100066.69;5097755;28;20024;-65
2024/04/07 04:28:22;;;;;;;7.07;4.50;;;;;;;16.80;100.00;100076.75;5095408;28;20074;-64
2024/04/07 04:30:55;;;;;;;5.20;3.60;;;;;;;16.74;100.00;100075.69;5098390;28;20127;-64
2024/04/07 04:33:22;;;;;;;4.07;3.65;;;;;;;16.66;100.00;100075.00;5095509;28;20054;-64
2024/04/07 04:35:49;;;;;;;3.90;3.50;;;;;;;16.26;100.00;100082.59;5097854;28;20055;-65
2024/04/07 04:38:15;;;;;;;5.32;3.22;;;;;;;16.33;100.00;100080.81;5094600;28;20031;-64
2024/04/07 04:40:41;;;;;;;6.45;4.72;;;;;;;16.28;100.00;100089.41;5097674;28;20055;-64
2024/04/07 04:43:07;;;;;;;6.85;4.00;;;;;;;16.35;100.00;100084.13;5096559;28;20082;-64
2024/04/07 04:45:33;;;;;;;6.05;4.35;;;;;;;16.45;100.00;100081.97;5097883;28;20028;-64
2024/04/07 04:47:58;;;;;;;8.02;4.30;;;;;;;16.47;100.00;100084.44;5096979;28;20081;-64
2024/04/07 04:50:23;;;;;;;5.95;3.42;;;;;;;16.49;100.00;100082.41;5096519;28;20066;-64
2024/04/07 04:52:49;;;;;;;4.68;3.65;;;;;;;16.50;100.00;100076.88;5095883;28;20050;-64
2024/04/07 04:55:15;;;;;;;4.93;4.05;;;;;;;16.60;100.00;100079.22;5098017;28;20032;-64
2024/04/07 04:57:40;;;;;;;4.07;3.78;;;;;;;16.72;100.00;100085.75;5096802;28;20123;-64
2024/04/07 05:00:06;;;;;;;4.93;4.00;;;;;;;16.89;100.00;100094.31;5096525;28;20123;-64
2024/04/07 05:02:32;;;;;;;5.20;3.90;;;;;;;16.86;100.00;100105.41;5098001;28;20081;-63
2024/04/07 05:04:58;;;;;;;5.07;3.60;;;;;;;16.76;100.00;100121.78;5095265;28;20218;-64
2024/04/07 05:07:23;;;;;;;4.43;3.90;;;;;;;16.65;100.00;100114.28;5097689;28;20077;-64
2024/04/07 05:09:49;;;;;;;7.03;4.47;;;;;;;16.54;100.00;100131.59;5096295;28;20027;-64
2024/04/07 05:12:14;;;;;;;5.20;4.63;;;;;;;16.46;100.00;100131.72;5097888;28;20044;-64
2024/04/07 05:14:40;;;;;;;7.10;4.90;;;;;;;16.69;100.00;100118.22;5095427;28;20032;-64
2024/04/07 05:17:08;;;;;;;4.43;3.90;;;;;;;16.93;100.00;100122.31;5097132;28;20257;-64
2024/04/07 05:19:34;;;;;;;5.15;3.65;;;;;;;17.12;100.00;100135.03;5096539;28;20222;-64
2024/04/07 05:21:59;;;;;;;4.78;3.80;;;;;;;17.23;100.00;100131.81;5096988;28;20098;-63
2024/04/07 05:24:26;;;;;;;5.20;3.80;;;;;;;17.30;100.00;100139.88;5095304;28;20039;-64
2024/04/07 05:26:51;;;;;;;3.95;3.40;;;;;;;17.45;100.00;100147.81;5095564;28;20219;-64
2024/04/07 05:29:17;;;;;;;4.07;3.30;;;;;;;17.47;100.00;100146.56;5095896;28;20048;-65
2024/04/07 05:31:44;;;;;;;4.03;3.33;;;;;;;17.50;100.00;100148.03;5095970;28;20270;-64
2024/04/07 05:34:10;;;;;;;3.35;3.05;;;;;;;17.55;100.00;100146.41;5097442;28;20040;-64
2024/04/07 05:36:35;;;;;;;3.70;3.40;;;;;;;17.78;100.00;100146.19;5094820;28;20207;-64
2024/04/07 05:39:00;;;;;;;4.05;2.83;;;;;;;17.82;100.00;100142.09;5097666;28;20051;-64
2024/04/07 05:41:26;;;;;;;3.53;3.08;;;;;;;17.74;100.00;100142.25;5094987;28;20081;-64
2024/04/07 05:43:51;;;;;;;4.68;3.70;;;;;;;17.98;100.00;100145.44;5096977;28;20044;-64
2024/04/07 05:46:17;;;;;;;5.38;3.55;;;;;;;18.19;100.00;100146.13;5095385;28;20031;-64
2024/04/07 05:48:42;;;;;;;5.90;3.97;;;;;;;18.47;100.00;100148.69;5097064;28;20238;-64
2024/04/07 05:51:13;;;;;;;4.28;3.88;;;;;;;18.67;100.00;100151.41;5094870;28;20326;-64
2024/04/07 05:53:39;;;;;;;7.50;3.45;;;;;;;18.55;100.00;100149.53;5096825;28;20038;-64
2024/04/07 05:56:10;;;;;;;3.03;2.72;;;;;;;18.57;100.00;100150.13;5094189;28;20036;-64
2024/04/07 05:58:35;;;;;;;4.63;3.33;;;;;;;18.79;100.00;100149.81;5096909;28;20210;-64
2024/04/07 06:01:01;;;;;;;4.95;2.80;;;;;;;19.01;100.00;100158.50;5094019;28;20032;-64
2024/04/07 06:03:26;;;;;;;3.78;3.10;;;;;;;19.35;100.00;100160.09;5095842;28;20044;-63
2024/04/07 06:05:51;;;;;;;4.05;3.10;;;;;;;19.55;100.00;100154.72;5094486;28;20349;-64
2024/04/07 06:08:17;;;;;;;2.70;2.35;;;;;;;19.27;100.00;100157.63;5094753;28;20036;-64
2024/04/07 06:10:42;;;;;;;3.38;2.75;;;;;;;19.12;100.00;100159.72;5099663;28;20028;-64
2024/04/07 06:13:08;;;;;;;2.83;2.15;;;;;;;19.04;100.00;100163.44;5104027;28;20039;-64
2024/04/07 06:15:33;;;;;;;3.25;2.50;;;;;;;19.27;100.00;100164.88;5095276;28;20035;-64
2024/04/07 06:17:59;;;;;;;2.70;2.47;;;;;;;19.61;99.94;100172.69;5094219;28;20031;-64
2024/04/07 06:20:24;;;;;;;3.22;2.58;;;;;;;19.95;98.32;100178.81;5096942;28;20065;-62
2024/04/07 06:22:50;;;;;;;2.65;2.30;;;;;;;19.97;95.42;100182.94;5096477;28;20032;-62
2024/04/07 06:25:15;;;;;;;2.28;1.92;;;;;;;19.91;96.99;100180.28;5096157;28;20036;-62
2024/04/07 06:27:41;;;;;;;2.83;2.10;;;;;;;19.92;97.06;100188.13;5096179;28;20067;-64
2024/04/07 06:30:07;;;;;;;2.20;2.00;;;;;;;19.90;96.43;100181.31;5096479;28;20107;-63
2024/04/07 06:32:33;;;;;;;2.50;2.30;;;;;;;19.75;97.07;100182.38;5097297;28;20032;-63
2024/04/07 06:34:59;;;;;;;2.25;2.05;;;;;;;19.71;97.22;100177.63;5095286;28;20032;-64
2024/04/07 06:37:24;;;;;;;3.45;2.65;;;;;;;19.63;97.60;100180.53;5096223;28;20341;-63
2024/04/07 06:39:50;;;;;;;3.30;1.77;;;;;;;19.60;97.99;100184.47;5093460;28;20238;-65
2024/04/07 06:42:25;;;;;;;3.10;2.00;;;;;;;19.64;97.09;100185.69;5096750;28;20057;-65
2024/04/07 06:44:51;;;;;;;4.10;2.25;;;;;;;19.84;94.90;100190.22;5095866;28;20337;-64
2024/04/07 06:47:16;;;;;;;2.17;1.67;;;;;;;19.98;94.82;100200.72;5096596;28;20035;-65
2024/04/07 06:49:42;;;;;;;1.67;1.58;;;;;;;20.15;92.61;100195.69;5096180;28;20044;-63
2024/04/07 06:52:07;;;;;;;2.25;1.70;;;;;;;20.15;92.50;100193.00;5096910;28;20587;-63
2024/04/07 06:54:32;;;;;;;2.78;1.95;;;;;;;20.18;92.61;100195.28;5095099;28;20372;-63
2024/04/07 06:56:58;;;;;;;2.15;1.75;;;;;;;20.19;92.90;100196.09;5095486;28;20040;-64
2024/04/07 06:59:23;;;;;;;2.28;2.00;;;;;;;20.31;92.29;100202.44;5096112;28;20220;-64
2024/04/07 07:01:49;;;;;;;2.17;1.65;;;;;;;20.46;91.03;100202.19;5096104;28;20043;-64
2024/04/07 07:04:14;;;;;;;2.38;1.80;;;;;;;20.47;90.93;100199.28;5095607;28;20043;-64
2024/04/07 07:06:40;;;;;;;2.47;1.73;;;;;;;20.58;91.64;100203.16;5095235;28;20039;-63
2024/04/07 07:09:07;;;;;;;2.20;1.60;;;;;;;20.98;89.17;100204.56;5096313;28;20043;-65
2024/04/07 07:11:32;;;;;;;7.10;2.80;;;;;;;21.27;88.73;100200.44;5095727;28;20207;-64
2024/04/07 07:13:58;;;;;;;4.97;1.75;;;;;;;21.65;86.90;100194.88;5097089;28;20294;-64
2024/04/07 07:16:23;;;;;;;3.33;1.80;;;;;;;21.83;82.75;100195.94;5093717;28;20032;-64
2024/04/07 07:18:49;;;;;;;2.58;1.70;;;;;;;21.77;83.25;100192.28;5096703;28;20044;-65
2024/04/07 07:21:14;;;;;;;1.60;1.48;;;;;;;21.86;82.76;100192.81;5095342;28;20032;-64
2024/04/07 07:23:40;;;;;;;1.80;1.63;;;;;;;22.15;82.18;100191.25;5096227;28;20046;-64
2024/04/07 07:26:05;;;;;;;1.90;1.80;;;;;;;22.21;80.29;100195.75;5095108;28;20040;-63
2024/04/07 07:28:31;;;;;;;2.28;1.77;;;;;;;22.34;81.39;100198.28;5099215;28;20145;-64
2024/04/07 07:30:57;;;;;;;3.30;1.45;;;;;;;22.45;76.55;100200.19;5096575;28;20027;-64
2024/04/07 07:33:22;;;;;;;7.85;2.47;;;;;;;22.61;72.04;100196.03;5099381;28;20024;-64
2024/04/07 07:35:52;;;;;;;2.35;2.03;;;;;;;23.03;73.01;100187.97;5099220;28;20353;-62
2024/04/07 07:38:17;;;;;;;4.30;1.73;;;;;;;23.28;72.29;100196.69;5100258;28;20113;-62
2024/04/07 07:40:43;;;;;;;2.50;1.80;;;;;;;23.63;69.67;100191.31;5098267;28;20044;-63
2024/04/07 07:43:08;;;;;;;1.85;1.50;;;;;;;23.85;66.94;100192.34;5098717;28;20043;-63
2024/04/07 07:45:34;;;;;;;1.33;1.27;;;;;;;23.50;67.59;100196.94;5098670;28;20036;-62
2024/04/07 07:47:59;;;;;;;2.38;1.58;;;;;;;23.65;64.04;100196.50;5098706;28;20066;-62
2024/04/07 07:50:25;;;;;;;2.67;1.85;;;;;;;23.66;65.20;100185.44;5100163;28;20024;-62
2024/04/07 07:52:50;;;;;;;1.67;1.45;;;;;;;23.80;66.07;100186.00;5098236;28;20028;-62
2024/04/07 07:55:16;;;;;;;2.67;1.88;;;;;;;23.80;65.17;100194.94;5099946;28;20055;-64
2024/04/07 07:57:42;;;;;;;1.75;1.60;;;;;;;23.78;65.14;100191.66;5097232;28;20365;-63
2024/04/07 08:00:11;;;;;;;1.73;1.50;;;;;;;23.99;62.71;100194.81;5099601;28;20040;-64
2024/04/07 08:02:37;;;;;;;2.22;2.03;;;;;;;24.25;61.34;100196.16;5098361;28;20047;-64
2024/04/07 08:05:04;;;;;;;1.67;1.13;;;;;;;24.28;61.57;100195.69;5099424;28;20036;-64
2024/04/07 08:07:29;;;;;;;2.42;1.48;;;;;;;24.44;59.90;100197.63;5096884;28;20048;-63
2024/04/07 08:09:55;;;;;;;1.65;1.20;;;;;;;24.53;58.39;100193.47;5099041;28;20175;-64
2024/04/07 08:12:21;;;;;;;2.92;1.83;;;;;;;24.52;57.96;100198.06;5097954;28;20245;-63
2024/04/07 08:14:47;;;;;;;1.50;0.85;;;;;;;24.05;56.54;100191.16;5098659;28;20031;-63
2024/04/07 08:17:12;;;;;;;10.07;1.65;;;;;;;23.64;55.47;100182.16;5097079;28;20040;-63
2024/04/07 08:19:38;;;;;;;1.58;0.95;;;;;;;23.66;55.85;100184.63;5098029;28;20099;-63
2024/04/07 08:22:03;;;;;;;1.30;0.73;;;;;;;23.59;57.93;100178.50;5097871;28;20259;-63
2024/04/07 08:24:29;;;;;;;1.05;0.95;;;;;;;23.32;57.69;100197.06;5098250;28;20354;-63
2024/04/07 08:26:55;;;;;;;1.17;0.82;;;;;;;23.32;55.79;100186.25;5099317;28;20024;-64
2024/04/07 08:29:20;;;;;;;1.80;1.00;;;;;;;23.46;55.82;100185.78;5096092;28;20120;-63
2024/04/07 08:31:46;;;;;;;3.40;1.63;;;;;;;23.50;56.42;100189.66;5098931;28;20051;-63
2024/04/07 08:34:11;;;;;;;1.63;1.20;;;;;;;23.66;56.66;100190.03;5097039;28;20745;-63
2024/04/07 08:36:37;;;;;;;1.15;1.00;;;;;;;23.63;53.52;100185.91;5098869;28;20043;-63
2024/04/07 08:39:02;;;;;;;1.45;1.00;;;;;;;23.84;56.06;100184.47;5097623;28;20310;-63
2024/04/07 08:41:28;;;;;;;0.85;0.85;;;;;;;24.01;53.62;100179.16;5098406;28;20078;-62
2024/04/07 08:43:54;;;;;;;2.08;0.80;;;;;;;24.01;56.25;100185.41;5097925;28;20052;-63
2024/04/07 08:46:22;;;;;;;1.45;0.93;;;;;;;24.03;52.71;100182.47;5097845;28;20046;-62
2024/04/07 08:48:52;;;;;;;0.93;0.90;;;;;;;23.77;55.85;100186.47;5097581;28;20074;-63
2024/04/07 08:51:18;;;;;;;1.35;0.90;;;;;;;23.58;52.71;100180.38;5097834;28;20032;-64
2024/04/07 08:53:44;;;;;;;1.02;1.00;;;;;;;23.77;52.84;100175.66;5097012;28;20043;-63
2024/04/07 08:56:12;;;;;;;2.42;0.95;;;;;;;23.89;54.33;100168.34;5097477;28;20055;-63
2024/04/07 08:58:42;;;;;;;1.80;0.90;;;;;;;24.03;51.40;100180.56;5097509;28;20309;-63
2024/04/07 09:01:14;;;;;;;1.30;1.00;;;;;;;24.01;52.39;100177.28;5096955;28;20077;-63
2024/04/07 09:03:40;;;;;;;1.58;0.85;;;;;;;24.24;50.54;100173.69;5096637;28;20035;-64
2024/04/07 09:06:05;;;;;;;1.30;0.70;;;;;;;23.67;50.88;100170.84;5097071;28;20089;-63
2024/04/07 09:08:32;;;;;;;1.70;1.00;;;;;;;22.46;52.45;100180.25;5098191;28;20044;-63
2024/04/07 09:10:57;;;;;;;1.48;0.90;;;;;;;22.27;55.22;100182.19;5096875;28;20043;-63
2024/04/07 09:13:23;;;;;;;1.25;0.98;;;;;;;22.29;53.00;100182.78;5098211;28;20048;-63
2024/04/07 09:15:49;;;;;;;1.27;0.80;;;;;;;22.34;52.69;100183.97;5094537;28;20063;-63
2024/04/07 09:18:17;;;;;;;2.40;1.00;;;;;;;22.53;54.87;100177.47;5097007;28;20096;-64
2024/04/07 09:20:43;;;;;;;2.05;0.70;;;;;;;22.86;51.02;100172.44;5094755;28;20073;-63
2024/04/07 09:23:09;;;;;;;0.77;0.77;;;;;;;23.03;50.93;100178.00;5097262;28;20032;-64
2024/04/07 09:25:34;;;;;;;2.50;0.82;;;;;;;22.95;49.01;100178.34;5094490;28;20226;-63
2024/04/07 09:28:00;;;;;;;1.80;0.90;;;;;;;22.88;47.72;100174.88;5097054;28;20328;-63
2024/04/07 09:30:26;;;;;;;0.85;0.70;;;;;;;22.91;46.58;100174.47;5095373;28;20040;-63
2024/04/07 09:32:51;;;;;;;1.23;0.80;;;;;;;22.79;44.27;100178.94;5095554;28;20123;-63
2024/04/07 09:35:17;;;;;;;1.60;0.80;;;;;;;22.80;44.55;100181.44;5093380;28;20052;-63
2024/04/07 09:37:43;;;;;;;1.88;1.20;;;;;;;22.58;49.30;100172.19;5080064;28;20056;-63
2024/04/07 09:40:09;;;;;;;2.25;1.30;;;;;;;22.40;51.24;100173.09;5081333;28;20059;-63
2024/04/07 09:42:38;;;;;;;2.13;1.00;;;;;;;22.39;52.00;100176.84;5077224;28;20277;-62
2024/04/07 09:45:11;;;;;;;1.20;0.93;;;;;;;22.43;51.92;100163.72;5077613;28;20041;-62
2024/04/07 09:47:38;;;;;;;1.58;0.98;;;;;;;22.44;51.62;100176.97;5076743;28;20338;-63
2024/04/07 09:50:33;;;;;;;2.35;1.20;;;;;;;22.53;51.13;100169.38;5075924;28;20198;-63
2024/04/07 09:53:12;;;;;;;0.98;0.90;;;;;;;22.50;46.32;100173.34;5077191;28;20036;-62
2024/04/07 09:55:40;;;;;;;1.40;1.20;;;;;;;22.54;46.69;100168.31;5077297;28;20274;-62
2024/04/07 09:58:06;;;;;;;1.13;0.90;;;;;;;22.42;45.23;100168.28;5077823;28;20059;-63
2024/04/07 10:00:33;;;;;;;2.05;0.93;;;;;;;22.32;48.65;100167.19;5076792;28;20024;-62
2024/04/07 10:02:59;;;;;;;1.75;1.10;;;;;;;22.29;52.68;100185.47;5077551;28;20095;-63
2024/04/07 10:05:25;;;;;;;3.28;0.93;;;;;;;22.10;53.79;100181.16;5076932;28;20198;-62
2024/04/07 10:07:51;;;;;;;1.35;1.02;;;;;;;21.91;55.74;100182.19;5077964;28;20074;-62
2024/04/07 10:10:21;;;;;;;1.25;1.13;;;;;;;21.90;54.55;100177.84;5076615;28;20393;-62
2024/04/07 10:12:47;;;;;;;3.53;1.00;;;;;;;22.03;60.72;100171.50;5078012;28;20042;-64
2024/04/07 10:15:19;;;;;;;2.65;1.05;;;;;;;22.01;54.93;100179.78;5094731;28;20048;-62
2024/04/07 10:17:45;;;;;;;0.98;0.90;;;;;;;21.96;55.38;100175.06;5098143;28;20039;-62
2024/04/07 10:20:14;;;;;;;1.63;1.10;;;;;;;21.86;52.99;100182.03;5080651;28;20220;-62
2024/04/07 10:22:42;;;;;;;1.10;0.90;;;;;;;21.82;46.92;100183.50;5080413;28;20048;-63
2024/04/07 10:25:08;;;;;;;2.80;1.05;;;;;;;21.67;49.76;100183.88;5095866;28;20043;-62
2024/04/07 10:27:42;;;;;;;1.48;1.25;;;;;;;21.53;50.14;100188.59;5096354;28;20024;-63
2024/04/07 10:30:15;;;;;;;1.75;1.50;;;;;;;21.49;53.88;100186.56;5096854;28;20048;-62
2024/04/07 10:32:41;;;;;;;2.85;0.90;;;;;;;21.29;55.15;100181.34;5096890;28;20040;-62
2024/04/07 10:35:10;;;;;;;1.58;1.10;;;;;;;21.13;56.04;100177.31;5095459;28;20067;-64
2024/04/07 10:37:38;;;;;;;1.77;1.02;;;;;;;20.98;61.54;100166.88;5096299;28;20040;-64
2024/04/07 10:40:08;;;;;;;1.23;0.98;;;;;;;20.91;63.84;100168.81;5096544;28;20051;-62
2024/04/07 10:42:37;;;;;;;1.77;1.30;;;;;;;21.11;64.81;100146.28;5095638;28;20024;-63
2024/04/07 10:45:04;;;;;;;1.05;0.82;;;;;;;21.34;57.04;100154.59;5094573;28;20032;-63
2024/04/07 10:47:31;;;;;;;3.17;0.98;;;;;;;21.53;54.52;100169.72;5096529;28;20032;-62
2024/04/07 10:49:56;;;;;;;1.10;1.00;;;;;;;21.67;50.57;100173.94;5093751;28;20245;-62
2024/04/07 10:52:26;;;;;;;2.97;1.20;;;;;;;21.80;55.07;100167.56;5097202;28;20045;-62
2024/04/07 10:54:54;;;;;;;2.67;0.90;;;;;;;21.89;56.82;100155.47;5095221;28;20044;-63
2024/04/07 10:57:19;;;;;;;1.25;0.77;;;;;;;21.93;58.57;100150.44;5095091;28;20375;-64
2024/04/07 10:59:45;;;;;;;1.10;0.90;;;;;;;22.05;49.36;100139.75;5092137;28;20040;-63
2024/04/07 11:02:11;;;;;;;1.00;0.90;;;;;;;22.11;50.59;100139.66;5098582;28;20043;-64
2024/04/07 11:04:36;;;;;;;3.40;1.00;;;;;;;22.26;46.94;100142.75;5100814;28;20063;-63
2024/04/07 11:07:03;;;;;;;0.80;0.80;;;;;;;22.39;51.75;100144.44;5099792;28;20037;-63
2024/04/07 11:09:29;;;;;;;1.35;0.80;;;;;;;22.53;45.71;100145.09;5101472;28;20058;-63
2024/04/07 11:11:59;;;;;;;1.35;0.90;;;;;;;22.58;50.83;100147.91;5100012;28;20333;-64
2024/04/07 11:14:29;;;;;;;0.70;0.70;;;;;;;22.56;43.17;100128.44;5100274;28;20040;-63
2024/04/07 11:16:55;;;;;;;0.90;0.75;;;;;;;22.71;44.45;100146.88;5100045;28;20238;-63
2024/04/07 11:19:23;;;;;;;2.30;0.85;;;;;;;22.63;43.11;100140.78;5100424;28;20031;-63
2024/04/07 11:21:49;;;;;;;1.00;0.88;;;;;;;22.54;42.90;100152.94;5099803;28;20065;-63